Time;durP1;ratioP1;P1;durP2;ratioP2;P2;SDS_P1;SDS_P2;PMS_P1;PMS_P2;Temp;Humidity;BMP_temperature;BMP_pressure;BME280_temperature;BME280_humidity;BME280_pressure;Samples;Min_cycle;Max_cycle;Signal;HPM_P1;HPM_P2
2023/12/13 00:02:03;;;;;;;9.95;1.88;;;8.40;99.90;;;;;;6281320;28;20056;-90
2023/12/13 00:05:05;;;;;;;9.50;2.10;;;8.50;99.90;;;;;;6314054;28;20049;-89
2023/12/13 00:08:07;;;;;;;14.82;2.28;;;8.50;99.90;;;;;;6282837;28;20131;-90
2023/12/13 00:11:08;;;;;;;8.95;2.15;;;8.50;99.90;;;;;;6312642;28;20052;-89
2023/12/13 00:14:10;;;;;;;11.13;2.25;;;8.40;99.90;;;;;;6294298;28;20051;-90
2023/12/13 00:17:14;;;;;;;11.07;2.25;;;8.40;99.90;;;;;;6281782;28;20052;-90
2023/12/13 00:20:16;;;;;;;11.48;2.10;;;8.50;99.90;;;;;;6308559;28;20059;-89
2023/12/13 00:23:18;;;;;;;6.47;2.05;;;8.50;99.90;;;;;;6283705;28;20098;-89
2023/12/13 00:26:19;;;;;;;9.73;2.30;;;8.50;99.90;;;;;;6307661;28;20056;-90
2023/12/13 00:29:21;;;;;;;10.48;2.40;;;8.50;99.90;;;;;;6280035;28;20056;-90
2023/12/13 00:32:23;;;;;;;10.48;2.22;;;8.50;99.90;;;;;;6271943;28;20504;-91
2023/12/13 00:35:25;;;;;;;11.25;2.60;;;8.50;99.90;;;;;;6290317;28;20056;-88
2023/12/13 00:38:26;;;;;;;8.55;2.10;;;8.50;99.90;;;;;;6296988;28;20505;-90
2023/12/13 00:41:28;;;;;;;12.18;2.58;;;8.50;99.90;;;;;;6271471;28;20081;-91
2023/12/13 00:44:30;;;;;;;13.63;2.97;;;8.50;99.90;;;;;;6295275;28;20044;-91
2023/12/13 00:47:31;;;;;;;10.55;2.50;;;8.50;99.90;;;;;;6251052;28;20130;-91
2023/12/13 00:50:34;;;;;;;9.63;2.30;;;8.40;99.90;;;;;;6301866;28;20051;-91
2023/12/13 00:53:35;;;;;;;9.73;2.47;;;8.40;99.90;;;;;;6278093;28;20061;-90
2023/12/13 00:56:37;;;;;;;9.82;2.50;;;8.40;99.90;;;;;;6287532;28;20045;-91
2023/12/13 00:59:39;;;;;;;9.20;2.78;;;8.40;99.90;;;;;;6296627;28;20488;-91
2023/12/13 01:02:40;;;;;;;7.55;2.20;;;8.30;99.90;;;;;;6276734;28;20065;-92
2023/12/13 01:06:00;;;;;;;12.32;2.97;;;8.40;99.90;;;;;;6351304;27;20388;-91
2023/12/13 01:09:03;;;;;;;7.30;2.30;;;8.30;99.90;;;;;;6348337;28;20071;-91
2023/12/13 01:12:05;;;;;;;16.08;3.13;;;8.30;99.90;;;;;;6346875;28;20060;-91
2023/12/13 01:15:08;;;;;;;8.18;2.70;;;8.40;99.90;;;;;;6328074;28;20044;-91
2023/12/13 01:18:09;;;;;;;12.48;3.72;;;8.30;99.90;;;;;;6343450;28;20054;-88
2023/12/13 01:21:11;;;;;;;11.30;3.60;;;8.30;99.90;;;;;;6344725;28;20082;-90
2023/12/13 01:24:13;;;;;;;11.55;3.25;;;8.30;99.90;;;;;;6322257;28;20055;-89
2023/12/13 01:27:15;;;;;;;10.05;3.22;;;8.30;99.90;;;;;;6345891;28;20043;-90
2023/12/13 01:30:16;;;;;;;10.90;3.45;;;8.30;99.90;;;;;;6342497;28;20071;-89
2023/12/13 01:33:19;;;;;;;10.93;3.50;;;8.30;99.90;;;;;;6329307;28;20193;-89
2023/12/13 01:36:21;;;;;;;16.23;3.70;;;8.40;99.90;;;;;;6345581;28;20048;-91
2023/12/13 01:39:22;;;;;;;10.80;3.20;;;8.40;99.90;;;;;;6346526;28;20056;-90
2023/12/13 01:42:24;;;;;;;12.95;3.33;;;8.40;99.90;;;;;;6320561;28;20515;-90
2023/12/13 01:45:26;;;;;;;12.45;3.47;;;8.40;99.90;;;;;;6344202;28;20054;-89
2023/12/13 01:48:28;;;;;;;8.93;3.42;;;8.40;99.90;;;;;;6321789;28;20365;-89
2023/12/13 01:51:30;;;;;;;13.70;4.13;;;8.40;99.90;;;;;;6361053;28;20134;-90
2023/12/13 01:54:31;;;;;;;10.02;3.50;;;8.40;99.90;;;;;;6346073;28;20059;-90
2023/12/13 01:57:33;;;;;;;10.80;4.10;;;8.50;99.90;;;;;;6345577;28;20058;-90
2023/12/13 02:00:36;;;;;;;10.40;4.25;;;8.50;99.90;;;;;;6319086;28;20052;-90
2023/12/13 02:03:41;;;;;;;6.68;3.72;;;8.50;99.90;;;;;;6330131;28;20055;-91
2023/12/13 02:06:42;;;;;;;11.05;4.88;;;8.50;99.90;;;;;;6348136;28;20043;-91
2023/12/13 02:09:44;;;;;;;11.80;4.25;;;8.50;99.90;;;;;;6349000;28;20043;-88
2023/12/13 02:12:46;;;;;;;10.88;4.50;;;8.50;99.90;;;;;;6342982;28;20048;-91
2023/12/13 02:15:48;;;;;;;11.73;4.78;;;8.50;99.90;;;;;;6311553;28;20052;-91
2023/12/13 02:18:50;;;;;;;13.10;5.38;;;8.50;99.90;;;;;;6302898;28;20076;-91
2023/12/13 02:21:51;;;;;;;14.40;5.32;;;8.50;99.90;;;;;;6340952;28;20399;-90
2023/12/13 02:24:53;;;;;;;15.60;5.57;;;8.50;99.90;;;;;;6321993;28;20062;-91
2023/12/13 02:27:55;;;;;;;12.90;6.00;;;8.50;99.90;;;;;;6319539;28;20045;-86
2023/12/13 02:30:58;;;;;;;12.70;6.30;;;8.50;99.90;;;;;;6300427;28;20051;-90
2023/12/13 02:34:00;;;;;;;14.25;6.53;;;8.50;99.90;;;;;;6300661;28;20060;-90
2023/12/13 02:37:02;;;;;;;12.55;6.80;;;8.50;99.90;;;;;;6341132;28;20059;-90
2023/12/13 02:40:04;;;;;;;15.15;7.18;;;8.60;99.90;;;;;;6324704;28;20487;-90
2023/12/13 02:43:06;;;;;;;13.85;7.43;;;8.60;99.90;;;;;;6302985;28;20083;-91
2023/12/13 02:46:08;;;;;;;16.40;6.85;;;8.60;99.90;;;;;;6326409;28;20063;-91
2023/12/13 02:49:09;;;;;;;19.58;7.88;;;8.60;99.90;;;;;;6301836;28;20044;-89
2023/12/13 02:52:11;;;;;;;13.10;6.80;;;8.60;99.90;;;;;;6324926;28;20132;-90
2023/12/13 02:55:13;;;;;;;12.55;6.57;;;8.60;99.90;;;;;;6301466;28;20094;-89
2023/12/13 02:58:15;;;;;;;14.18;7.38;;;8.60;99.90;;;;;;6317107;28;20044;-90
2023/12/13 03:01:17;;;;;;;12.93;7.32;;;8.60;99.90;;;;;;6299279;28;20052;-89
2023/12/13 03:04:19;;;;;;;13.00;7.00;;;8.60;99.90;;;;;;6314825;28;20091;-89
2023/12/13 03:07:20;;;;;;;13.18;7.32;;;8.60;99.90;;;;;;6323227;28;20186;-88
2023/12/13 03:10:22;;;;;;;15.40;7.65;;;8.60;99.90;;;;;;6326160;28;20138;-89
2023/12/13 03:13:25;;;;;;;13.38;7.30;;;8.60;99.90;;;;;;6306337;28;20437;-88
2023/12/13 03:16:28;;;;;;;13.93;7.35;;;8.60;99.90;;;;;;6325193;28;20059;-89
2023/12/13 03:19:30;;;;;;;12.95;7.68;;;8.60;99.90;;;;;;6300801;28;20086;-89
2023/12/13 03:22:31;;;;;;;15.35;8.57;;;8.60;99.90;;;;;;6324355;28;20135;-88
2023/12/13 03:25:33;;;;;;;11.80;7.68;;;8.60;99.90;;;;;;6324904;28;20055;-89
2023/12/13 03:28:35;;;;;;;15.82;8.07;;;8.60;99.90;;;;;;6309310;28;20425;-88
2023/12/13 03:31:37;;;;;;;18.85;8.48;;;8.60;99.90;;;;;;6324477;28;20052;-87
2023/12/13 03:34:39;;;;;;;16.42;8.80;;;8.60;99.90;;;;;;6299771;28;20917;-89
2023/12/13 03:37:41;;;;;;;20.13;9.60;;;8.60;99.90;;;;;;6324177;28;20048;-89
2023/12/13 03:40:42;;;;;;;21.23;10.88;;;8.60;99.90;;;;;;6299725;28;20522;-89
2023/12/13 03:43:44;;;;;;;25.45;10.85;;;8.60;99.90;;;;;;6310928;28;20435;-88
2023/12/13 03:46:46;;;;;;;26.27;11.60;;;8.60;99.90;;;;;;6323692;28;20576;-89
2023/12/13 03:49:48;;;;;;;25.38;11.88;;;8.60;99.90;;;;;;6300064;28;20067;-89
2023/12/13 03:52:50;;;;;;;24.92;11.48;;;8.50;99.90;;;;;;6324060;28;20076;-88
2023/12/13 03:55:51;;;;;;;24.98;12.43;;;8.60;99.90;;;;;;6310700;28;20052;-90
2023/12/13 03:58:53;;;;;;;30.38;11.98;;;8.50;99.90;;;;;;6311007;28;20050;-90
2023/12/13 04:01:55;;;;;;;27.95;12.40;;;8.60;99.90;;;;;;6324355;28;20059;-90
2023/12/13 04:04:57;;;;;;;29.70;11.88;;;8.60;99.90;;;;;;6313134;28;20056;-90
2023/12/13 04:07:58;;;;;;;28.45;12.70;;;8.60;99.90;;;;;;6324657;28;20571;-92
2023/12/13 04:11:00;;;;;;;29.75;12.15;;;8.50;99.90;;;;;;6324947;28;20055;-90
2023/12/13 04:14:02;;;;;;;29.35;12.30;;;8.60;99.90;;;;;;6307928;28;20064;-91
2023/12/13 04:17:04;;;;;;;25.35;11.60;;;8.50;99.90;;;;;;6323273;28;20492;-91
2023/12/13 04:20:05;;;;;;;29.33;11.77;;;8.50;99.90;;;;;;6300608;28;20823;-91
2023/12/13 04:23:07;;;;;;;28.27;12.48;;;8.50;99.90;;;;;;6324902;28;20107;-89
2023/12/13 04:26:09;;;;;;;24.58;11.27;;;8.50;99.90;;;;;;6316326;28;20491;-90
2023/12/13 04:29:11;;;;;;;27.25;12.98;;;8.50;99.90;;;;;;6305685;28;20424;-89
2023/12/13 04:32:12;;;;;;;33.13;13.07;;;8.50;99.90;;;;;;6323422;28;20491;-90
2023/12/13 04:35:14;;;;;;;34.13;13.65;;;8.50;99.90;;;;;;6308653;28;20052;-90
2023/12/13 04:38:16;;;;;;;25.77;12.48;;;8.50;99.90;;;;;;6323103;28;20510;-90
2023/12/13 04:41:17;;;;;;;27.50;13.00;;;8.60;99.90;;;;;;6300252;28;20060;-90
2023/12/13 04:44:19;;;;;;;27.48;12.18;;;8.50;99.90;;;;;;6308991;28;20044;-90
2023/12/13 04:47:21;;;;;;;25.85;12.73;;;8.50;99.90;;;;;;6325679;28;20056;-90
2023/12/13 04:50:22;;;;;;;26.77;12.52;;;8.50;99.90;;;;;;6300734;28;20049;-90
2023/12/13 04:53:24;;;;;;;22.63;11.07;;;8.50;99.90;;;;;;6324241;28;20048;-92
2023/12/13 04:56:26;;;;;;;20.25;11.15;;;8.50;99.90;;;;;;6318045;28;20059;-90
2023/12/13 04:59:28;;;;;;;24.45;11.82;;;8.50;99.90;;;;;;6315283;28;20056;-89
2023/12/13 05:02:29;;;;;;;25.60;11.70;;;8.50;99.90;;;;;;6324642;28;20044;-90
2023/12/13 05:05:31;;;;;;;25.58;11.48;;;8.40;99.90;;;;;;6319306;28;20061;-90
2023/12/13 05:08:33;;;;;;;18.33;9.98;;;8.50;99.90;;;;;;6300165;28;20048;-90
2023/12/13 05:11:35;;;;;;;21.02;9.95;;;8.50;99.90;;;;;;6324075;28;20052;-91
2023/12/13 05:14:37;;;;;;;21.90;10.30;;;8.40;99.90;;;;;;6319831;28;20050;-90
2023/12/13 05:17:38;;;;;;;21.80;10.43;;;8.50;99.90;;;;;;6299759;28;20059;-92
2023/12/13 05:20:40;;;;;;;23.15;10.70;;;8.50;99.90;;;;;;6324203;28;20051;-91
2023/12/13 05:23:42;;;;;;;24.30;10.68;;;8.50;99.90;;;;;;6324214;28;20054;-90
2023/12/13 05:26:44;;;;;;;23.27;11.07;;;8.50;99.90;;;;;;6323015;28;20547;-90
2023/12/13 05:29:46;;;;;;;21.38;10.40;;;8.50;99.90;;;;;;6303574;28;20048;-91
2023/12/13 05:32:49;;;;;;;20.52;10.13;;;8.50;99.90;;;;;;6324300;28;20060;-91
2023/12/13 05:35:51;;;;;;;21.92;10.55;;;8.50;99.90;;;;;;6323960;28;20535;-90
2023/12/13 05:38:53;;;;;;;22.90;10.23;;;8.50;99.90;;;;;;6299914;28;20056;-91
2023/12/13 05:41:56;;;;;;;19.38;9.00;;;8.50;99.90;;;;;;6323953;28;20048;-89
2023/12/13 05:44:58;;;;;;;18.55;8.93;;;8.50;99.90;;;;;;6324709;28;20052;-91
2023/12/13 05:48:00;;;;;;;19.65;8.80;;;8.50;99.90;;;;;;6299004;28;20056;-91
2023/12/13 05:51:01;;;;;;;20.95;9.48;;;8.50;99.90;;;;;;6324059;28;20419;-91
2023/12/13 05:54:04;;;;;;;16.52;8.10;;;8.50;99.90;;;;;;6302751;28;20056;-91
2023/12/13 05:57:06;;;;;;;18.08;7.95;;;8.50;99.90;;;;;;6327974;28;20079;-91
2023/12/13 06:00:08;;;;;;;16.08;7.55;;;8.50;99.90;;;;;;6300205;28;20068;-91
2023/12/13 06:03:10;;;;;;;16.88;7.50;;;8.50;99.90;;;;;;6326795;28;20491;-91
2023/12/13 06:06:11;;;;;;;16.52;7.95;;;8.50;99.90;;;;;;6310602;28;20052;-91
2023/12/13 06:09:14;;;;;;;17.17;8.10;;;8.50;99.90;;;;;;6328281;28;20056;-90
2023/12/13 06:12:17;;;;;;;18.75;8.48;;;8.50;99.90;;;;;;6327707;28;20423;-90
2023/12/13 06:15:18;;;;;;;18.48;8.68;;;8.50;99.90;;;;;;6326082;28;20461;-92
2023/12/13 06:18:20;;;;;;;17.27;8.57;;;8.40;99.90;;;;;;6311296;28;20048;-91
2023/12/13 06:21:22;;;;;;;22.17;8.88;;;8.50;99.90;;;;;;6328620;28;20052;-91
2023/12/13 06:24:23;;;;;;;17.05;8.02;;;8.40;99.90;;;;;;6327752;28;20117;-92
2023/12/13 06:27:25;;;;;;;21.65;8.40;;;8.40;99.90;;;;;;6322573;28;20068;-91
2023/12/13 06:30:27;;;;;;;19.05;8.30;;;8.40;99.90;;;;;;6323821;28;20059;-88
2023/12/13 06:33:29;;;;;;;21.90;9.43;;;8.40;99.90;;;;;;6303276;28;20057;-91
2023/12/13 06:36:31;;;;;;;18.90;8.90;;;8.30;99.90;;;;;;6342571;28;20048;-90
2023/12/13 06:39:32;;;;;;;18.20;9.05;;;8.30;99.90;;;;;;6324189;28;20060;-91
2023/12/13 06:42:34;;;;;;;17.63;8.73;;;8.20;99.90;;;;;;6326858;28;20052;-92
2023/12/13 06:45:36;;;;;;;21.08;10.00;;;8.30;99.90;;;;;;6324331;28;20048;-91
2023/12/13 06:48:38;;;;;;;22.25;9.75;;;8.20;99.90;;;;;;6316194;28;20056;-91
2023/12/13 06:51:40;;;;;;;21.83;9.95;;;8.20;99.90;;;;;;6342313;28;20059;-91
2023/12/13 06:54:41;;;;;;;21.73;9.57;;;8.20;99.90;;;;;;6332375;28;20064;-91
2023/12/13 06:57:43;;;;;;;23.83;9.80;;;8.30;99.90;;;;;;6310263;28;20044;-92
2023/12/13 07:00:45;;;;;;;21.60;9.20;;;8.20;99.90;;;;;;6326489;28;20055;-91
2023/12/13 07:03:47;;;;;;;23.00;9.50;;;8.20;99.90;;;;;;6323281;28;20075;-91
2023/12/13 07:06:49;;;;;;;18.90;8.90;;;8.30;99.90;;;;;;6325906;28;20063;-91
2023/12/13 07:09:51;;;;;;;19.45;8.20;;;8.20;99.90;;;;;;6326209;28;20446;-89
2023/12/13 07:12:53;;;;;;;20.98;8.93;;;8.20;99.90;;;;;;6302835;28;20048;-89
2023/12/13 07:15:54;;;;;;;19.92;8.38;;;8.30;99.90;;;;;;6325350;28;20044;-89
2023/12/13 07:18:56;;;;;;;20.60;8.23;;;8.20;99.90;;;;;;6301268;28;20048;-92
2023/12/13 07:21:58;;;;;;;16.27;7.45;;;8.30;99.90;;;;;;6341967;28;20483;-91
2023/12/13 07:25:00;;;;;;;16.60;7.53;;;8.30;99.90;;;;;;6325180;28;20407;-89
2023/12/13 07:28:02;;;;;;;15.63;7.25;;;8.30;99.90;;;;;;6308888;28;20051;-90
2023/12/13 07:31:04;;;;;;;17.48;6.78;;;8.30;99.90;;;;;;6329290;28;20051;-91
2023/12/13 07:34:10;;;;;;;15.23;6.90;;;8.30;99.90;;;;;;6319707;28;20427;-89
2023/12/13 07:37:12;;;;;;;17.70;6.57;;;8.30;99.90;;;;;;6342228;28;20177;-89
2023/12/13 07:40:14;;;;;;;15.27;7.22;;;8.20;99.90;;;;;;6324164;28;20139;-90
2023/12/13 07:43:17;;;;;;;15.45;7.03;;;8.30;99.90;;;;;;6343510;28;20066;-88
2023/12/13 07:46:18;;;;;;;17.05;7.43;;;8.30;99.90;;;;;;6324509;28;20060;-89
2023/12/13 07:49:20;;;;;;;17.23;7.72;;;8.30;99.90;;;;;;6300114;28;20453;-89
2023/12/13 07:52:22;;;;;;;14.45;7.05;;;8.30;99.90;;;;;;6325154;28;20498;-89
2023/12/13 07:55:24;;;;;;;14.73;7.00;;;8.30;99.90;;;;;;6299486;28;20051;-88
2023/12/13 07:58:26;;;;;;;14.70;6.95;;;8.30;99.90;;;;;;6311774;28;20523;-90
2023/12/13 08:01:28;;;;;;;15.43;6.68;;;8.20;99.90;;;;;;6324777;28;20127;-90
2023/12/13 08:04:29;;;;;;;13.68;6.35;;;8.20;99.90;;;;;;6312292;28;20075;-91
2023/12/13 08:07:31;;;;;;;14.68;6.55;;;8.20;99.90;;;;;;6301039;28;20526;-88
2023/12/13 08:10:33;;;;;;;13.75;6.25;;;8.20;99.90;;;;;;6323453;28;20123;-90
2023/12/13 08:13:35;;;;;;;12.02;5.85;;;8.20;99.90;;;;;;6303538;28;20055;-89
2023/12/13 08:16:37;;;;;;;8.02;4.65;;;8.20;99.90;;;;;;6300138;28;20502;-89
2023/12/13 08:19:39;;;;;;;9.48;4.72;;;8.20;99.90;;;;;;6325938;28;20056;-89
2023/12/13 08:22:40;;;;;;;9.15;4.47;;;8.20;99.90;;;;;;6301630;28;20044;-90
2023/12/13 08:25:42;;;;;;;8.65;3.75;;;8.30;99.90;;;;;;6324399;28;20070;-90
2023/12/13 08:28:44;;;;;;;6.70;3.75;;;8.20;99.90;;;;;;6311828;28;20075;-90
2023/12/13 08:31:46;;;;;;;7.07;3.40;;;8.20;99.90;;;;;;6300271;28;20079;-88
2023/12/13 08:34:48;;;;;;;6.05;3.22;;;8.20;99.90;;;;;;6325483;28;20446;-89
2023/12/13 08:37:50;;;;;;;9.32;3.60;;;8.20;99.90;;;;;;6302972;28;20053;-89
2023/12/13 08:40:52;;;;;;;6.68;3.47;;;8.20;99.90;;;;;;6327821;28;20059;-89
2023/12/13 08:43:54;;;;;;;6.30;3.22;;;8.20;99.90;;;;;;6310505;28;20056;-90
2023/12/13 08:46:56;;;;;;;7.20;3.47;;;8.20;99.90;;;;;;6327728;28;20047;-89
2023/12/13 08:49:58;;;;;;;6.32;2.95;;;8.20;99.90;;;;;;6307146;28;20051;-88
2023/12/13 08:53:02;;;;;;;6.00;3.38;;;8.20;99.90;;;;;;6329447;28;20560;-91
2023/12/13 08:56:06;;;;;;;7.85;3.85;;;8.30;99.90;;;;;;6300398;28;20058;-90
2023/12/13 08:59:08;;;;;;;7.82;4.07;;;8.20;99.90;;;;;;6322102;28;20047;-89
2023/12/13 09:02:09;;;;;;;6.45;3.72;;;8.20;99.90;;;;;;6300705;28;20084;-91
2023/12/13 09:05:11;;;;;;;6.68;4.00;;;8.20;99.90;;;;;;6324651;28;20052;-91
2023/12/13 09:08:13;;;;;;;7.18;4.32;;;8.20;99.90;;;;;;6296907;28;20068;-91
2023/12/13 09:11:14;;;;;;;7.88;4.32;;;8.30;99.90;;;;;;6321760;28;20052;-90
2023/12/13 09:14:16;;;;;;;7.60;4.03;;;8.30;99.90;;;;;;6311588;28;20063;-88
2023/12/13 09:17:18;;;;;;;8.75;4.60;;;8.30;99.90;;;;;;6296221;28;20138;-85
2023/12/13 09:20:20;;;;;;;8.07;4.30;;;8.30;99.90;;;;;;6321574;28;20052;-90
2023/12/13 09:23:22;;;;;;;8.68;4.43;;;8.30;99.90;;;;;;6302776;28;20052;-92
2023/12/13 09:26:23;;;;;;;7.25;4.47;;;8.30;99.90;;;;;;6326948;28;20063;-91
2023/12/13 09:29:25;;;;;;;9.82;5.25;;;8.30;99.90;;;;;;6304876;28;20049;-91
2023/12/13 09:32:27;;;;;;;9.00;5.10;;;8.20;99.90;;;;;;6323706;28;20454;-83
2023/12/13 09:35:28;;;;;;;8.65;5.10;;;8.20;99.90;;;;;;6299511;28;20052;-84
2023/12/13 09:38:31;;;;;;;8.25;4.95;;;8.10;99.90;;;;;;6324350;28;20099;-83
2023/12/13 09:41:32;;;;;;;9.40;4.90;;;8.10;99.90;;;;;;6322569;28;20055;-84
2023/12/13 09:44:38;;;;;;;8.27;4.90;;;8.10;99.90;;;;;;6321545;28;20415;-83
2023/12/13 09:47:40;;;;;;;12.48;5.47;;;8.10;99.90;;;;;;6299131;28;20057;-82
2023/12/13 09:50:42;;;;;;;9.05;5.22;;;8.10;99.90;;;;;;6323487;28;20051;-82
2023/12/13 09:53:44;;;;;;;8.90;4.78;;;8.10;99.90;;;;;;6324311;28;20058;-84
2023/12/13 09:56:46;;;;;;;10.63;5.20;;;8.20;99.90;;;;;;6300665;28;20060;-88
2023/12/13 09:59:48;;;;;;;8.73;5.15;;;8.20;99.90;;;;;;6327510;28;20048;-91
2023/12/13 10:02:49;;;;;;;9.98;5.25;;;8.30;99.90;;;;;;6307368;28;20054;-91
2023/12/13 10:05:51;;;;;;;7.45;4.70;;;8.30;99.90;;;;;;6331067;28;20048;-91
2023/12/13 10:08:53;;;;;;;8.63;3.60;;;8.30;99.90;;;;;;6308057;28;20072;-92
2023/12/13 10:11:55;;;;;;;6.47;3.50;;;8.40;99.90;;;;;;6329217;28;20063;-91
2023/12/13 10:14:57;;;;;;;6.50;3.58;;;8.40;99.90;;;;;;6305157;28;20138;-92
2023/12/13 10:17:59;;;;;;;5.68;3.50;;;8.50;99.90;;;;;;6332525;28;20051;-87
2023/12/13 10:21:00;;;;;;;5.15;3.10;;;8.50;99.90;;;;;;6308688;28;20140;-92
2023/12/13 10:24:02;;;;;;;4.90;2.92;;;8.60;99.90;;;;;;6333325;28;20051;-92
2023/12/13 10:27:04;;;;;;;7.20;3.35;;;8.70;99.90;;;;;;6308443;28;20059;-92
2023/12/13 10:30:06;;;;;;;6.30;3.20;;;8.70;99.90;;;;;;6328608;28;20048;-91
2023/12/13 10:33:08;;;;;;;5.20;2.55;;;8.70;99.90;;;;;;6310456;28;20086;-86
2023/12/13 10:36:09;;;;;;;6.05;2.90;;;8.60;99.90;;;;;;6332782;28;20055;-84
2023/12/13 10:39:11;;;;;;;5.15;2.60;;;8.60;99.90;;;;;;6324777;28;20059;-89
2023/12/13 10:42:13;;;;;;;5.93;2.20;;;8.60;99.90;;;;;;6322138;28;20048;-93
2023/12/13 10:45:15;;;;;;;3.63;1.90;;;8.50;99.90;;;;;;6338799;28;20052;-92
2023/12/13 10:48:16;;;;;;;5.07;2.20;;;8.40;99.90;;;;;;6317772;28;20048;-92
2023/12/13 10:51:18;;;;;;;5.63;2.20;;;8.30;99.90;;;;;;6344873;28;20066;-92
2023/12/13 10:54:20;;;;;;;6.65;1.98;;;8.30;99.90;;;;;;6321027;28;20112;-91
2023/12/13 10:57:22;;;;;;;2.40;0.90;;;8.30;99.90;;;;;;6344745;28;20115;-89
2023/12/13 11:00:25;;;;;;;3.53;1.10;;;8.20;99.90;;;;;;6320166;28;20120;-91
2023/12/13 11:03:28;;;;;;;4.32;1.30;;;8.20;99.90;;;;;;6324064;28;20055;-90
2023/12/13 11:06:30;;;;;;;3.42;1.15;;;8.30;99.90;;;;;;6341480;28;20060;-92
2023/12/13 11:09:32;;;;;;;3.03;0.90;;;8.30;99.90;;;;;;6342418;28;20149;-92
2023/12/13 11:12:33;;;;;;;4.45;1.00;;;8.30;99.90;;;;;;6319158;28;20045;-92
2023/12/13 11:15:35;;;;;;;4.45;1.00;;;8.30;99.90;;;;;;6334313;28;20071;-92
2023/12/13 11:18:37;;;;;;;3.50;1.00;;;8.40;99.90;;;;;;6297865;28;20059;-93
2023/12/13 11:21:41;;;;;;;3.25;0.93;;;8.30;99.90;;;;;;6325391;28;20135;-89
2023/12/13 11:24:43;;;;;;;2.22;0.85;;;8.30;99.90;;;;;;6330865;28;20487;-92
2023/12/13 11:27:44;;;;;;;5.50;1.05;;;8.30;99.90;;;;;;6303697;28;20060;-90
2023/12/13 11:30:48;;;;;;;2.20;0.80;;;8.20;99.90;;;;;;6304424;28;20147;-90
2023/12/13 11:33:50;;;;;;;2.67;0.80;;;8.20;99.90;;;;;;6301309;28;20087;-89
2023/12/13 11:36:52;;;;;;;3.17;0.77;;;8.20;99.90;;;;;;6296596;28;20049;-90
2023/12/13 11:39:56;;;;;;;3.58;0.93;;;8.20;99.90;;;;;;6319658;28;20099;-87
2023/12/13 11:42:57;;;;;;;2.85;0.90;;;8.20;99.90;;;;;;6299361;28;20048;-91
2023/12/13 11:46:01;;;;;;;3.45;1.02;;;8.10;99.90;;;;;;6324009;28;20048;-91
2023/12/13 11:49:03;;;;;;;3.80;1.00;;;8.10;99.90;;;;;;6319664;28;20491;-91
2023/12/13 11:52:04;;;;;;;3.85;0.90;;;8.10;99.90;;;;;;6295994;28;20058;-90
2023/12/13 11:55:08;;;;;;;2.38;0.80;;;8.10;99.90;;;;;;6296651;28;20056;-92
2023/12/13 11:58:16;;;;;;;5.22;1.00;;;8.20;99.90;;;;;;6319513;28;20526;-90
2023/12/13 12:01:19;;;;;;;3.35;0.80;;;8.10;99.90;;;;;;6300648;28;20062;-89
2023/12/13 12:04:23;;;;;;;2.53;0.80;;;8.10;99.90;;;;;;6317999;28;20060;-90
2023/12/13 12:07:25;;;;;;;3.45;0.80;;;8.10;99.90;;;;;;6295077;28;20056;-89
2023/12/13 12:10:27;;;;;;;5.40;1.00;;;8.10;99.90;;;;;;6305909;28;20045;-90
2023/12/13 12:13:29;;;;;;;3.38;1.02;;;8.10;99.90;;;;;;6317155;28;20588;-88
2023/12/13 12:16:30;;;;;;;3.80;0.90;;;7.90;99.90;;;;;;6318784;28;20058;-87
2023/12/13 12:19:34;;;;;;;3.35;0.90;;;8.00;99.90;;;;;;6295686;28;20051;-87
2023/12/13 12:22:36;;;;;;;4.10;0.90;;;7.90;99.90;;;;;;6319799;28;20163;-87
2023/12/13 12:25:38;;;;;;;4.13;1.17;;;8.00;99.90;;;;;;6304742;28;20395;-89
2023/12/13 12:28:40;;;;;;;2.55;0.90;;;7.90;99.90;;;;;;6304104;28;20138;-88
2023/12/13 12:31:42;;;;;;;2.53;0.90;;;7.90;99.90;;;;;;6317924;28;20048;-89
2023/12/13 12:34:43;;;;;;;3.42;1.10;;;7.90;99.90;;;;;;6301900;28;20051;-89
2023/12/13 12:37:46;;;;;;;6.15;1.20;;;7.90;99.90;;;;;;6296458;28;20121;-89
2023/12/13 12:40:48;;;;;;;4.10;1.00;;;7.80;99.90;;;;;;6319962;28;20237;-89
2023/12/13 12:43:50;;;;;;;2.38;0.82;;;7.80;99.90;;;;;;6311946;28;20189;-92
2023/12/13 12:46:51;;;;;;;4.57;1.00;;;7.80;99.90;;;;;;6295918;28;20109;-89
2023/12/13 12:49:53;;;;;;;3.67;1.10;;;7.80;99.90;;;;;;6295492;28;20561;-87
2023/12/13 12:52:55;;;;;;;4.95;1.17;;;7.80;99.90;;;;;;6298221;28;20056;-89
2023/12/13 12:55:57;;;;;;;4.95;1.20;;;7.80;99.90;;;;;;6318356;28;20059;-89
2023/12/13 12:59:00;;;;;;;2.67;1.10;;;7.70;99.90;;;;;;6296809;28;20051;-88
2023/12/13 13:02:03;;;;;;;5.97;1.15;;;7.70;99.90;;;;;;6338518;28;20379;-91
2023/12/13 13:05:08;;;;;;;5.35;1.30;;;7.70;99.90;;;;;;6311051;28;20195;-89
2023/12/13 13:08:09;;;;;;;3.83;1.13;;;7.70;99.90;;;;;;6335578;28;20055;-89
2023/12/13 13:11:11;;;;;;;3.80;1.20;;;7.60;99.90;;;;;;6329788;28;20049;-87
2023/12/13 13:14:13;;;;;;;3.38;1.20;;;7.60;99.90;;;;;;6307738;28;20105;-90
2023/12/13 13:17:15;;;;;;;4.20;1.25;;;7.50;99.90;;;;;;6310568;28;20514;-88
2023/12/13 13:20:20;;;;;;;4.35;1.20;;;7.50;99.90;;;;;;6318332;28;20056;-89
2023/12/13 13:23:21;;;;;;;4.00;1.13;;;7.50;99.90;;;;;;6319194;28;20104;-89
2023/12/13 13:26:23;;;;;;;3.90;1.40;;;7.40;99.90;;;;;;6318063;28;20056;-89
2023/12/13 13:29:24;;;;;;;4.07;1.33;;;7.40;99.90;;;;;;6295138;28;20504;-90
2023/12/13 13:32:26;;;;;;;5.13;1.30;;;7.40;99.90;;;;;;6318134;28;20491;-89
2023/12/13 13:35:28;;;;;;;3.10;1.15;;;7.40;99.90;;;;;;6293346;28;20048;-90
2023/12/13 13:38:29;;;;;;;3.10;1.30;;;7.40;99.90;;;;;;6319169;28;20044;-88
2023/12/13 13:41:31;;;;;;;4.32;1.27;;;7.40;99.90;;;;;;6295044;28;20064;-89
2023/12/13 13:44:33;;;;;;;4.95;1.27;;;7.40;99.90;;;;;;6319833;28;20068;-89
2023/12/13 13:47:34;;;;;;;3.88;1.02;;;7.30;99.90;;;;;;6302003;28;20052;-90
2023/12/13 13:50:37;;;;;;;2.65;1.10;;;7.30;99.90;;;;;;6329181;28;20673;-91
2023/12/13 13:53:39;;;;;;;2.78;1.17;;;7.20;99.90;;;;;;6297520;28;20048;-92
2023/12/13 13:56:40;;;;;;;2.72;1.10;;;7.20;99.90;;;;;;6324072;28;20107;-94
2023/12/13 13:59:42;;;;;;;4.30;1.33;;;7.20;99.90;;;;;;6297506;28;20135;-92
2023/12/13 14:02:45;;;;;;;4.03;1.38;;;7.20;99.90;;;;;;6321500;28;20538;-91
2023/12/13 14:05:47;;;;;;;3.10;0.95;;;7.20;99.90;;;;;;6319083;28;20558;-90
2023/12/13 14:08:50;;;;;;;4.15;1.30;;;7.10;99.90;;;;;;6324702;28;20052;-89
2023/12/13 14:11:52;;;;;;;4.80;1.40;;;7.10;99.90;;;;;;6298711;28;20060;-91
2023/12/13 14:14:57;;;;;;;4.07;1.00;;;7.10;99.90;;;;;;6316468;28;20072;-87
2023/12/13 14:17:59;;;;;;;5.32;1.38;;;7.10;99.90;;;;;;6334024;28;20044;-90
2023/12/13 14:21:03;;;;;;;3.65;1.20;;;7.10;99.90;;;;;;6331032;28;20047;-91
2023/12/13 14:24:04;;;;;;;3.97;1.20;;;7.00;99.90;;;;;;6308514;28;20056;-88
2023/12/13 14:27:09;;;;;;;3.58;1.05;;;7.00;99.90;;;;;;6330322;28;20671;-93
2023/12/13 14:30:13;;;;;;;4.18;1.05;;;7.00;99.90;;;;;;6295106;28;20526;-90
2023/12/13 14:33:14;;;;;;;4.38;0.90;;;7.10;99.90;;;;;;6321149;28;20181;-88
2023/12/13 14:36:17;;;;;;;3.95;1.02;;;7.10;99.90;;;;;;6297744;28;20048;-91
2023/12/13 14:39:19;;;;;;;3.42;0.90;;;7.10;99.90;;;;;;6326352;28;20056;-90
2023/12/13 14:42:24;;;;;;;2.75;1.10;;;7.10;99.90;;;;;;6298664;28;20080;-92
2023/12/13 14:45:26;;;;;;;3.72;1.20;;;7.10;99.90;;;;;;6313410;28;20127;-90
2023/12/13 14:48:27;;;;;;;3.47;1.10;;;7.10;99.90;;;;;;6326501;28;20048;-88
2023/12/13 14:51:29;;;;;;;3.25;1.10;;;7.00;99.90;;;;;;6299421;28;20057;-87
2023/12/13 14:54:31;;;;;;;3.05;1.10;;;7.00;99.90;;;;;;6324149;28;20056;-84
2023/12/13 14:57:33;;;;;;;3.75;1.48;;;7.00;99.90;;;;;;6299914;28;20048;-86
2023/12/13 15:00:35;;;;;;;2.78;1.23;;;7.00;99.90;;;;;;6321364;28;20048;-85
2023/12/13 15:03:36;;;;;;;5.57;1.33;;;7.00;99.90;;;;;;6307458;28;20518;-87
2023/12/13 15:06:38;;;;;;;5.85;1.55;;;7.00;99.90;;;;;;6323769;28;20052;-86
2023/12/13 15:09:40;;;;;;;4.30;1.35;;;7.00;99.90;;;;;;6328631;28;20060;-85
2023/12/13 15:12:43;;;;;;;3.67;1.33;;;7.00;99.90;;;;;;6307240;28;20131;-81
2023/12/13 15:15:46;;;;;;;3.90;1.65;;;7.10;99.90;;;;;;6326788;28;20440;-89
2023/12/13 15:18:48;;;;;;;5.22;1.42;;;7.10;99.90;;;;;;6299170;28;20075;-85
2023/12/13 15:21:50;;;;;;;5.32;1.30;;;7.10;99.90;;;;;;6297646;28;20154;-87
2023/12/13 15:24:51;;;;;;;4.65;1.63;;;7.10;99.90;;;;;;6299351;28;20064;-85
2023/12/13 15:27:53;;;;;;;6.65;1.50;;;7.20;99.90;;;;;;6321832;28;20079;-89
2023/12/13 15:30:55;;;;;;;6.65;1.60;;;7.20;99.90;;;;;;6322781;28;20204;-89
2023/12/13 15:33:57;;;;;;;6.70;1.98;;;7.10;99.90;;;;;;6298143;28;20051;-87
2023/12/13 15:36:59;;;;;;;8.75;1.70;;;7.10;99.90;;;;;;6323329;28;20114;-90
2023/12/13 15:40:00;;;;;;;8.40;1.90;;;7.10;99.90;;;;;;6323818;28;20590;-89
2023/12/13 15:43:02;;;;;;;6.75;1.80;;;7.20;99.90;;;;;;6303432;28;20080;-91
2023/12/13 15:46:05;;;;;;;9.65;2.50;;;7.10;99.90;;;;;;6324443;28;20130;-91
2023/12/13 15:49:07;;;;;;;7.72;1.90;;;7.20;99.90;;;;;;6299341;28;20051;-88
2023/12/13 15:52:08;;;;;;;7.03;1.67;;;7.10;99.90;;;;;;6326130;28;20052;-91